Nebish, Minnesota
Current Conditions -  °F | °C
As of 4:52 PM on Tuesday 25 Nov 2014 (Local Time) from KBJI Reporting Station
Clear Clear  
Wind Chill: 19°   Ceiling: Unl
Heat Index: 19°   Visibility: 10mi
Dew Point: 11°   Wind: 3mph
Humidity: 72%   Direction: 80°E
Pressure: 29.92"   Gusts: NA
Location:  47.7369°N, 94.9947°W
Report Text: KBJI 252252Z AUTO 08003KT 10SM CLR M07/M11 A2992 RMK AO2 T10721115
Loading
Personal Weather Stations






























Interactive Weather Map New forecast layout! Learn more

10-Day Weather Forecast

Advertisements
Track Severe Weather on mobile